Time;durP1;ratioP1;P1;durP2;ratioP2;P2;SDS_P1;SDS_P2;PMS_P1;PMS_P2;Temp;Humidity;BMP_temperature;BMP_pressure;BME280_temperature;BME280_humidity;BME280_pressure;Samples;Min_cycle;Max_cycle;Signal;HPM_P1;HPM_P2
2022/04/19 00:02:07;;;;;;;6.80;4.10;;;;;;;6.47;50.56;99718.27;106590;1268;97939;-71
2022/04/19 00:04:39;;;;;;;8.60;3.70;;;;;;;6.45;50.80;99718.64;106595;1268;111906;-71
2022/04/19 00:07:11;;;;;;;10.70;7.00;;;;;;;6.43;51.07;99715.23;106438;1270;137460;-71
2022/04/19 00:09:43;;;;;;;7.60;5.00;;;;;;;6.43;51.77;99718.02;106692;1268;108861;-71
2022/04/19 00:12:15;;;;;;;6.70;4.40;;;;;;;6.43;51.82;99714.20;106446;1269;138303;-71
2022/04/19 00:14:48;;;;;;;9.40;4.20;;;;;;;6.42;51.85;99710.27;106636;1268;97713;-71
2022/04/19 00:17:21;;;;;;;6.90;4.40;;;;;;;6.38;51.75;99706.39;106626;1267;111895;-72
2022/04/19 00:19:53;;;;;;;7.80;4.00;;;;;;;6.34;52.23;99708.72;106879;1268;137249;-72
2022/04/19 00:22:25;;;;;;;7.80;4.20;;;;;;;6.32;52.32;99706.00;106525;1268;108549;-71
2022/04/19 00:24:58;;;;;;;5.90;3.90;;;;;;;6.32;52.62;99705.16;106527;1268;138207;-71
2022/04/19 00:27:30;;;;;;;7.60;4.80;;;;;;;6.28;52.56;99707.30;106630;1267;97809;-71
2022/04/19 00:30:03;;;;;;;6.60;4.40;;;;;;;6.22;52.70;99706.57;106468;1268;139054;-72
2022/04/19 00:32:35;;;;;;;8.10;4.60;;;;;;;6.17;52.97;99701.55;106578;1271;109248;-71
2022/04/19 00:35:10;;;;;;;9.00;4.50;;;;;;;6.11;53.58;99703.39;106589;1268;108936;-70
2022/04/19 00:37:42;;;;;;;4.90;4.20;;;;;;;6.06;53.82;99702.10;106449;1268;138021;-71
2022/04/19 00:40:14;;;;;;;10.60;5.00;;;;;;;6.00;54.25;99701.03;106589;1267;97816;-70
2022/04/19 00:42:47;;;;;;;7.50;4.60;;;;;;;5.92;54.17;99703.63;106471;1268;138769;-71
2022/04/19 00:45:19;;;;;;;7.50;4.20;;;;;;;5.83;54.67;99703.13;106584;1268;109159;-72
2022/04/19 00:47:51;;;;;;;7.00;4.20;;;;;;;5.73;55.15;99706.42;106482;1268;138600;-72
2022/04/19 00:50:24;;;;;;;8.30;4.90;;;;;;;5.63;55.56;99701.64;106431;1268;98005;-72
2022/04/19 00:52:56;;;;;;;6.80;4.70;;;;;;;5.57;56.04;99697.64;106546;1268;97959;-73
2022/04/19 00:55:30;;;;;;;9.10;5.00;;;;;;;5.56;56.38;99697.29;106366;1268;138437;-71
2022/04/19 00:58:02;;;;;;;8.70;4.90;;;;;;;5.56;56.57;99696.78;106541;1268;108155;-71
2022/04/19 01:00:34;;;;;;;8.80;4.60;;;;;;;5.54;57.05;99693.38;106478;1268;138235;-71
2022/04/19 01:03:10;;;;;;;9.20;4.10;;;;;;;5.50;57.36;99692.41;106616;1268;97828;-73
2022/04/19 01:05:46;;;;;;;11.70;4.80;;;;;;;5.49;57.65;99689.17;106468;1268;138585;-72
2022/04/19 01:08:24;;;;;;;8.80;4.10;;;;;;;5.51;57.90;99690.16;106472;1271;112451;-71
2022/04/19 01:13:53;;;;;;;8.10;4.10;;;;;;;5.35;57.91;99679.77;106290;1271;137938;-71
2022/04/19 01:16:25;;;;;;;6.70;4.10;;;;;;;5.27;58.33;99681.67;106537;1270;97803;-71
2022/04/19 01:18:58;;;;;;;7.80;4.40;;;;;;;5.23;58.39;99678.31;106338;1271;137978;-71
2022/04/19 01:21:45;;;;;;;8.30;3.90;;;;;;;5.19;58.68;99681.83;106533;1270;112338;-71
2022/04/19 01:24:19;;;;;;;7.10;3.90;;;;;;;5.15;59.11;99681.02;106467;1270;138333;-72
2022/04/19 01:26:56;;;;;;;6.80;4.00;;;;;;;5.11;59.53;99675.77;106460;1271;108880;-72
2022/04/19 01:29:29;;;;;;;7.70;4.10;;;;;;;5.08;59.44;99674.28;106534;1270;97836;-71
2022/04/19 01:32:07;;;;;;;7.10;4.40;;;;;;;5.11;59.84;99674.06;106476;1270;137669;-72
2022/04/19 01:34:40;;;;;;;5.30;4.10;;;;;;;5.13;59.62;99672.11;106600;1270;112450;-72
2022/04/19 01:37:17;;;;;;;7.00;4.00;;;;;;;5.14;59.80;99671.24;106393;1269;138253;-72
2022/04/19 01:42:45;;;;;;;6.90;4.20;;;;;;;5.10;59.71;99667.00;106355;1269;138071;-71
2022/04/19 01:45:19;;;;;;;6.40;4.40;;;;;;;5.10;59.69;99664.94;106392;1271;97823;-72
2022/04/19 01:47:52;;;;;;;8.10;4.40;;;;;;;5.09;59.72;99662.04;106407;1271;137989;-71
2022/04/19 01:50:26;;;;;;;6.90;4.30;;;;;;;5.08;59.89;99661.55;106363;1271;107474;-72
2022/04/19 01:52:59;;;;;;;5.70;4.30;;;;;;;5.05;60.04;99660.05;106416;1271;109026;-72
2022/04/19 01:55:34;;;;;;;8.20;5.10;;;;;;;5.03;60.15;99656.83;106417;1270;138130;-72
2022/04/19 01:58:11;;;;;;;7.30;4.70;;;;;;;5.01;60.25;99658.39;106356;1270;97834;-72
2022/04/19 02:00:45;;;;;;;8.20;4.70;;;;;;;4.99;60.56;99659.63;106414;1269;138239;-73
2022/04/19 02:03:20;;;;;;;9.10;5.30;;;;;;;5.00;60.91;99661.16;106536;1269;108904;-72
2022/04/19 02:05:52;;;;;;;9.90;5.60;;;;;;;5.04;60.58;99660.58;106413;1271;140490;-71
2022/04/19 02:08:25;;;;;;;10.50;6.00;;;;;;;5.07;60.58;99661.55;106470;1271;97849;-72
2022/04/19 02:10:59;;;;;;;10.20;5.20;;;;;;;5.09;60.84;99659.45;106403;1270;97819;-73
2022/04/19 02:13:32;;;;;;;8.10;5.30;;;;;;;5.11;60.80;99653.55;106375;1268;138073;-71
2022/04/19 02:16:14;;;;;;;8.10;5.70;;;;;;;5.12;60.83;99657.66;106555;1268;108278;-72
2022/04/19 02:18:48;;;;;;;9.80;5.80;;;;;;;5.12;60.77;99657.83;106445;1268;139411;-71
2022/04/19 02:21:20;;;;;;;8.30;5.90;;;;;;;5.11;60.87;99658.89;106528;1268;97786;-71
2022/04/19 02:23:52;;;;;;;8.80;5.60;;;;;;;5.09;60.93;99658.59;106354;1268;173414;-71
2022/04/19 02:26:24;;;;;;;8.10;5.50;;;;;;;5.09;61.05;99658.08;106606;1267;111435;-71
2022/04/19 02:28:58;;;;;;;9.30;5.80;;;;;;;5.08;61.11;99659.30;106577;1268;108492;-71
2022/04/19 02:31:45;;;;;;;8.80;5.90;;;;;;;5.07;61.20;99656.23;106442;1268;139454;-70
2022/04/19 02:34:18;;;;;;;8.40;5.80;;;;;;;5.06;61.31;99659.17;106578;1268;97976;-72
2022/04/19 02:36:52;;;;;;;6.40;5.40;;;;;;;5.06;61.40;99661.92;106514;1268;137801;-71
2022/04/19 02:39:24;;;;;;;8.80;5.60;;;;;;;5.07;61.23;99659.51;106606;1268;112719;-71
2022/04/19 02:41:56;;;;;;;8.20;5.00;;;;;;;5.05;61.11;99656.61;106460;1271;138359;-71
2022/04/19 02:44:29;;;;;;;8.30;5.00;;;;;;;5.04;61.01;99653.36;106531;1268;108795;-72
2022/04/19 02:47:08;;;;;;;6.90;5.10;;;;;;;5.02;61.22;99655.63;106556;1268;97842;-71
2022/04/19 02:49:41;;;;;;;9.80;5.20;;;;;;;4.99;61.21;99653.26;106475;1268;137817;-71
2022/04/19 02:52:13;;;;;;;8.00;4.80;;;;;;;4.98;61.22;99655.68;106572;1268;112451;-71
2022/04/19 02:54:45;;;;;;;7.30;4.90;;;;;;;5.00;61.46;99652.73;106452;1267;138057;-71
2022/04/19 02:57:18;;;;;;;12.50;4.90;;;;;;;5.03;61.50;99650.45;106566;1268;108465;-72
2022/04/19 02:59:51;;;;;;;10.20;4.70;;;;;;;5.04;61.37;99645.78;106461;1268;138437;-71
2022/04/19 03:02:23;;;;;;;8.70;5.00;;;;;;;5.02;61.30;99649.23;106678;1270;97840;-70
2022/04/19 03:04:55;;;;;;;7.10;4.80;;;;;;;4.98;61.43;99647.59;106482;1271;111693;-71
2022/04/19 03:07:27;;;;;;;6.80;4.90;;;;;;;4.95;61.80;99650.77;106211;1271;138254;-71
2022/04/19 03:09:59;;;;;;;6.10;4.70;;;;;;;4.92;61.82;99650.81;106477;1270;108720;-71
2022/04/19 03:12:31;;;;;;;9.30;4.20;;;;;;;4.90;61.50;99653.62;106293;1271;139434;-70
2022/04/19 03:15:12;;;;;;;7.80;4.60;;;;;;;4.92;61.73;99654.27;106515;1271;97912;-72
2022/04/19 03:17:44;;;;;;;9.20;4.20;;;;;;;4.94;61.83;99657.16;106608;1271;111416;-72
2022/04/19 03:20:16;;;;;;;6.20;4.10;;;;;;;4.96;61.96;99656.42;106494;1270;138373;-72
2022/04/19 03:28:32;;;;;;;5.00;3.50;;;;;;;4.93;61.83;99658.38;106572;1271;97817;-72
2022/04/19 03:31:04;;;;;;;6.00;4.00;;;;;;;4.93;61.78;99660.45;106434;1271;137820;-72
2022/04/19 03:33:37;;;;;;;6.80;3.60;;;;;;;4.86;61.83;99661.27;106493;1271;109138;-71
2022/04/19 03:36:09;;;;;;;6.00;3.40;;;;;;;4.82;61.77;99661.16;106488;1270;139057;-72
2022/04/19 03:38:43;;;;;;;6.80;4.10;;;;;;;4.81;61.80;99660.83;106489;1271;97830;-73
2022/04/19 03:41:15;;;;;;;7.10;3.80;;;;;;;4.77;61.72;99662.29;106603;1270;97845;-72
2022/04/19 03:43:53;;;;;;;4.40;3.10;;;;;;;4.71;61.79;99662.39;106642;1271;137963;-73
2022/04/19 03:46:25;;;;;;;6.20;3.20;;;;;;;4.70;62.14;99667.23;106512;1270;108820;-72
2022/04/19 03:48:57;;;;;;;5.10;3.70;;;;;;;4.72;62.20;99668.92;106432;1271;138095;-72
2022/04/19 03:51:29;;;;;;;5.40;3.40;;;;;;;4.73;62.10;99671.14;106515;1271;97906;-72
2022/04/19 03:54:01;;;;;;;4.80;3.70;;;;;;;4.74;62.32;99673.70;106464;1271;138220;-72
2022/04/19 03:56:33;;;;;;;4.80;3.30;;;;;;;4.77;62.41;99673.30;106582;1271;113194;-72
2022/04/19 03:59:06;;;;;;;3.70;3.00;;;;;;;4.75;62.22;99671.10;106559;1271;107717;-71
2022/04/19 04:01:39;;;;;;;5.60;3.40;;;;;;;4.75;62.23;99670.41;106427;1268;138050;-71
2022/04/19 04:04:11;;;;;;;3.70;3.30;;;;;;;4.76;62.29;99670.90;106510;1268;97868;-72
2022/04/19 04:06:44;;;;;;;4.30;3.30;;;;;;;4.77;62.48;99671.92;106355;1271;138104;-72
2022/04/19 04:09:16;;;;;;;3.80;3.30;;;;;;;4.77;62.42;99673.98;106520;1271;112320;-71
2022/04/19 04:11:51;;;;;;;4.60;3.80;;;;;;;4.72;62.29;99680.63;106400;1271;109092;-71
2022/04/19 04:14:23;;;;;;;4.10;3.50;;;;;;;4.70;62.38;99682.73;106301;1270;137937;-71
2022/04/19 04:16:55;;;;;;;4.80;3.70;;;;;;;4.67;62.63;99684.17;106442;1269;97879;-73
2022/04/19 04:19:27;;;;;;;5.40;3.90;;;;;;;4.65;62.49;99687.62;106185;1271;137928;-72
2022/04/19 04:21:59;;;;;;;4.60;4.10;;;;;;;4.63;62.64;99690.41;106591;1269;111496;-71
2022/04/19 04:24:32;;;;;;;8.60;4.00;;;;;;;4.63;63.02;99693.87;106452;1270;138358;-72
2022/04/19 04:27:04;;;;;;;8.80;5.20;;;;;;;4.63;63.32;99695.77;106363;1271;108346;-73
2022/04/19 04:29:37;;;;;;;5.40;4.50;;;;;;;4.57;63.30;99700.52;106467;1269;98316;-71
2022/04/19 04:32:10;;;;;;;5.20;4.70;;;;;;;4.51;63.25;99705.78;106398;1271;137862;-71
2022/04/19 04:34:42;;;;;;;5.30;4.40;;;;;;;4.43;63.57;99709.68;106403;1271;112394;-73
2022/04/19 04:37:15;;;;;;;7.40;5.40;;;;;;;4.25;63.72;99714.96;106551;1270;138054;-72
2022/04/19 04:39:50;;;;;;;5.70;4.20;;;;;;;4.08;64.05;99717.61;106348;1271;108174;-73
2022/04/19 04:42:31;;;;;;;6.60;4.60;;;;;;;3.95;63.95;99720.39;107119;1268;138156;-71
2022/04/19 04:45:11;;;;;;;5.20;4.50;;;;;;;3.83;64.76;99723.13;106576;1268;97831;-73
2022/04/19 04:50:34;;;;;;;8.00;6.50;;;;;;;3.58;65.80;99728.59;106630;1271;138688;-72
2022/04/19 04:53:08;;;;;;;10.00;7.40;;;;;;;3.46;66.03;99732.70;106769;1268;107885;-72
2022/04/19 04:55:43;;;;;;;7.00;5.90;;;;;;;3.33;66.96;99731.81;106359;1271;138246;-72
2022/04/19 04:58:23;;;;;;;7.50;6.60;;;;;;;3.18;66.97;99735.75;106642;1268;97832;-72
2022/04/19 05:00:57;;;;;;;8.00;7.20;;;;;;;3.11;67.32;99739.10;106602;1268;137840;-72
2022/04/19 05:03:29;;;;;;;10.90;7.40;;;;;;;3.04;67.86;99746.89;106943;1268;108802;-72
2022/04/19 05:06:01;;;;;;;8.90;7.60;;;;;;;2.97;67.84;99747.13;106564;1271;108134;-72
2022/04/19 05:08:33;;;;;;;9.90;7.40;;;;;;;2.93;67.78;99750.59;106496;1268;138076;-71
2022/04/19 05:11:05;;;;;;;9.90;6.90;;;;;;;2.95;67.71;99751.61;106587;1268;97865;-72
2022/04/19 05:13:39;;;;;;;8.70;7.10;;;;;;;2.97;68.10;99749.86;106395;1271;138180;-72
2022/04/19 05:16:12;;;;;;;6.80;5.20;;;;;;;2.96;68.45;99753.83;106569;1268;106749;-72
2022/04/19 05:18:44;;;;;;;6.60;5.40;;;;;;;2.89;68.95;99752.19;106454;1268;138330;-72
2022/04/19 05:21:16;;;;;;;6.50;5.50;;;;;;;2.82;68.74;99748.96;106606;1268;97950;-72
2022/04/19 05:23:49;;;;;;;5.10;4.50;;;;;;;2.79;69.06;99754.49;106611;1271;97810;-71
2022/04/19 05:26:28;;;;;;;5.60;4.60;;;;;;;2.73;69.19;99757.83;106854;1268;137996;-72
2022/04/19 05:29:00;;;;;;;5.40;4.50;;;;;;;2.66;69.15;99762.31;107204;1269;108854;-71
2022/04/19 05:31:32;;;;;;;5.00;4.50;;;;;;;2.63;69.16;99768.01;106275;1271;137155;-72
2022/04/19 05:34:05;;;;;;;5.20;4.60;;;;;;;2.63;68.77;99771.10;106640;1268;97880;-72
2022/04/19 05:36:37;;;;;;;5.50;4.50;;;;;;;2.69;68.58;99772.09;106413;1271;138243;-72
2022/04/19 05:39:09;;;;;;;5.50;4.40;;;;;;;2.76;68.46;99771.53;106567;1268;111892;-73
2022/04/19 05:41:41;;;;;;;6.30;4.70;;;;;;;2.83;68.66;99777.29;106689;1268;108145;-72
2022/04/19 05:44:14;;;;;;;5.10;4.50;;;;;;;2.87;68.41;99780.36;106482;1268;138145;-73
2022/04/19 05:46:46;;;;;;;5.40;4.60;;;;;;;2.89;68.48;99783.63;106694;1271;97893;-73
2022/04/19 05:49:18;;;;;;;5.30;4.80;;;;;;;2.93;68.13;99785.11;106632;1271;138075;-74
2022/04/19 05:51:54;;;;;;;5.50;4.60;;;;;;;2.99;67.87;99786.08;106592;1268;112515;-73
2022/04/19 05:54:26;;;;;;;6.20;4.90;;;;;;;3.08;67.93;99798.04;106879;1268;138407;-74
2022/04/19 05:57:01;;;;;;;6.80;6.00;;;;;;;3.14;67.91;99797.81;106507;1268;108085;-72
2022/04/19 05:59:33;;;;;;;10.00;8.80;;;;;;;3.19;67.86;99795.86;106581;1268;98170;-73
2022/04/19 06:05:04;;;;;;;11.40;10.30;;;;;;;3.15;67.62;99800.04;106288;1274;112130;-72
2022/04/19 06:07:45;;;;;;;10.30;9.20;;;;;;;3.18;67.67;99804.45;106125;1274;138672;-73
2022/04/19 06:10:17;;;;;;;10.10;8.90;;;;;;;3.20;67.63;99805.47;106293;1274;108267;-72
2022/04/19 06:12:52;;;;;;;10.70;9.10;;;;;;;3.23;67.67;99813.54;106527;1274;138339;-72
2022/04/19 06:15:25;;;;;;;9.50;8.60;;;;;;;3.26;67.66;99813.34;106386;1274;97935;-72
2022/04/19 06:17:57;;;;;;;9.90;8.80;;;;;;;3.28;67.78;99818.30;106298;1274;112399;-72
2022/04/19 06:20:53;;;;;;;10.10;8.40;;;;;;;3.30;67.51;99821.54;106223;1274;139500;-72
2022/04/19 06:23:26;;;;;;;11.50;7.60;;;;;;;3.33;67.51;99823.05;106421;1274;108890;-72
2022/04/19 06:25:58;;;;;;;8.20;6.60;;;;;;;3.32;68.00;99824.95;106285;1272;138233;-72
2022/04/19 06:28:31;;;;;;;7.60;6.80;;;;;;;3.24;67.42;99819.02;106254;1276;98572;-72
2022/04/19 06:31:18;;;;;;;11.50;8.50;;;;;;;3.26;67.49;99824.67;106376;1274;138560;-72
2022/04/19 06:34:03;;;;;;;7.60;6.80;;;;;;;3.36;67.53;99828.69;106326;1274;109064;-72
2022/04/19 06:36:49;;;;;;;7.80;6.20;;;;;;;3.43;67.45;99826.06;106196;1274;139137;-72
2022/04/19 06:39:21;;;;;;;5.70;5.20;;;;;;;3.39;67.46;99829.17;106677;1274;95803;-72
2022/04/19 06:41:54;;;;;;;7.60;5.70;;;;;;;3.29;67.42;99832.38;107755;1269;96221;-72
2022/04/19 06:44:27;;;;;;;6.00;5.40;;;;;;;3.25;67.35;99837.92;106987;1270;139709;-72
2022/04/19 06:47:09;;;;;;;8.00;5.70;;;;;;;3.26;67.65;99843.58;106591;1271;108115;-73
2022/04/19 06:49:42;;;;;;;5.50;5.00;;;;;;;3.28;67.53;99847.68;106798;1271;138211;-72
2022/04/19 06:52:14;;;;;;;7.30;5.00;;;;;;;3.29;67.27;99850.25;106791;1268;97796;-72
2022/04/19 06:54:47;;;;;;;8.90;4.80;;;;;;;3.30;67.25;99852.98;106454;1268;138123;-73
2022/04/19 06:57:19;;;;;;;5.50;4.50;;;;;;;3.36;67.12;99860.99;106553;1271;112886;-72
2022/04/19 06:59:51;;;;;;;4.70;4.20;;;;;;;3.42;67.20;99867.15;106777;1268;108862;-72
2022/04/19 07:02:23;;;;;;;5.40;4.60;;;;;;;3.44;66.88;99867.30;106665;1270;137962;-72
2022/04/19 07:05:01;;;;;;;4.90;4.40;;;;;;;3.49;66.69;99870.85;106687;1268;97908;-72
2022/04/19 07:07:34;;;;;;;4.70;4.30;;;;;;;3.55;66.55;99873.02;106405;1268;137862;-72
2022/04/19 07:10:07;;;;;;;5.40;4.70;;;;;;;3.65;66.75;99872.42;107040;1268;111621;-72
2022/04/19 07:12:40;;;;;;;5.10;4.50;;;;;;;3.72;66.42;99873.73;106692;1271;138568;-72
2022/04/19 07:15:19;;;;;;;5.80;4.60;;;;;;;3.78;66.12;99877.61;106485;1268;107706;-72
2022/04/19 07:17:58;;;;;;;6.00;4.50;;;;;;;3.88;65.89;99877.15;106533;1268;98367;-72
2022/04/19 07:29:02;;;;;;;5.60;4.20;;;;;;;4.26;65.09;99883.08;106351;1271;109153;-71
2022/04/19 07:31:34;;;;;;;6.30;4.60;;;;;;;4.34;64.83;99886.09;106608;1268;139194;-72
2022/04/19 07:34:10;;;;;;;5.30;4.70;;;;;;;4.44;64.42;99887.50;106550;1268;97828;-72
2022/04/19 07:36:42;;;;;;;5.60;4.40;;;;;;;4.48;64.15;99890.73;106390;1271;139017;-70
2022/04/19 07:39:14;;;;;;;4.90;4.40;;;;;;;4.52;63.87;99887.42;107467;1268;108153;-73
2022/04/19 07:41:48;;;;;;;5.20;4.70;;;;;;;4.53;63.82;99892.21;107178;1268;108849;-73
2022/04/19 07:44:20;;;;;;;5.50;4.90;;;;;;;4.58;63.71;99894.55;106621;1268;138031;-73
2022/04/19 07:46:52;;;;;;;6.60;4.90;;;;;;;4.65;63.53;99894.97;107135;1268;96137;-72
2022/04/19 07:49:24;;;;;;;4.90;4.40;;;;;;;4.70;63.38;99894.05;106414;1268;137930;-72
2022/04/19 07:51:56;;;;;;;4.70;4.30;;;;;;;4.76;63.36;99893.44;106936;1268;108567;-72
2022/04/19 07:54:29;;;;;;;5.90;5.30;;;;;;;4.83;63.31;99898.67;106908;1268;109416;-72
2022/04/19 07:57:01;;;;;;;5.80;5.00;;;;;;;4.94;63.06;99897.15;106379;1271;138538;-73
2022/04/19 07:59:33;;;;;;;5.30;4.60;;;;;;;5.04;62.74;99905.08;106484;1268;97815;-72
2022/04/19 08:02:07;;;;;;;5.40;4.80;;;;;;;5.12;62.68;99909.61;106909;1268;138042;-72
2022/04/19 08:04:39;;;;;;;4.70;4.20;;;;;;;5.24;62.58;99909.61;107080;1271;107810;-72
2022/04/19 08:07:11;;;;;;;6.00;4.90;;;;;;;5.40;62.34;99910.55;107381;1268;139685;-73
2022/04/19 08:09:43;;;;;;;6.60;4.60;;;;;;;5.56;61.65;99912.52;106567;1268;97869;-72
2022/04/19 08:12:18;;;;;;;7.50;4.60;;;;;;;5.75;61.69;99915.47;106609;1268;97816;-71
2022/04/19 08:14:50;;;;;;;5.00;4.50;;;;;;;5.90;61.07;99918.14;107944;1268;137818;-73
2022/04/19 08:17:22;;;;;;;9.50;5.70;;;;;;;5.98;60.51;99922.14;107437;1268;109690;-74
2022/04/19 08:19:57;;;;;;;6.20;4.70;;;;;;;6.06;60.34;99924.24;106600;1271;139525;-73
2022/04/19 08:22:30;;;;;;;4.70;4.20;;;;;;;6.04;59.78;99931.52;107553;1268;98649;-74
2022/04/19 08:25:12;;;;;;;5.00;4.50;;;;;;;5.98;59.53;99932.16;106463;1268;137619;-73
2022/04/19 08:27:46;;;;;;;6.20;5.00;;;;;;;5.88;59.57;99938.52;106805;1268;111447;-73
2022/04/19 08:30:19;;;;;;;7.10;5.90;;;;;;;5.79;59.31;99934.38;106716;1271;109507;-72
2022/04/19 08:32:53;;;;;;;5.80;5.20;;;;;;;5.79;59.66;99934.90;106392;1271;137894;-72
2022/04/19 08:35:26;;;;;;;5.80;5.10;;;;;;;5.85;59.68;99933.41;106553;1268;97831;-73
2022/04/19 08:37:58;;;;;;;5.80;4.90;;;;;;;5.88;59.28;99937.30;106437;1268;138789;-74
2022/04/19 08:40:34;;;;;;;8.60;6.30;;;;;;;5.89;59.45;99942.13;106359;1271;112396;-73
2022/04/19 08:43:11;;;;;;;6.30;5.60;;;;;;;5.89;59.27;99943.85;106468;1268;137632;-74
2022/04/19 08:45:44;;;;;;;6.30;5.40;;;;;;;5.85;59.00;99938.76;106591;1268;106390;-73
2022/04/19 08:48:19;;;;;;;8.10;5.90;;;;;;;5.84;59.35;99941.89;106719;1268;97849;-72
2022/04/19 08:50:51;;;;;;;6.20;5.40;;;;;;;5.87;59.20;99940.26;106380;1271;137705;-72
2022/04/19 08:59:05;;;;;;;5.50;4.70;;;;;;;5.90;58.71;99946.26;106988;1271;108789;-73
2022/04/19 09:01:39;;;;;;;5.50;4.90;;;;;;;5.89;58.65;99949.55;106502;1268;137479;-73
2022/04/19 09:04:11;;;;;;;5.60;4.50;;;;;;;5.91;58.59;99949.18;106872;1268;97823;-73
2022/04/19 09:06:54;;;;;;;7.10;4.60;;;;;;;5.99;58.73;99948.02;106565;1268;138219;-71
2022/04/19 09:09:28;;;;;;;4.60;4.20;;;;;;;6.09;58.54;99948.52;106666;1271;107877;-74
2022/04/19 09:12:09;;;;;;;5.30;4.50;;;;;;;6.19;58.30;99949.36;106600;1268;107341;-73
2022/04/19 09:14:58;;;;;;;5.00;4.50;;;;;;;6.29;57.77;99945.56;106544;1268;137941;-73
2022/04/19 09:17:35;;;;;;;5.00;4.50;;;;;;;6.37;57.62;99949.70;106862;1268;97697;-72
2022/04/19 09:20:18;;;;;;;6.50;4.40;;;;;;;6.43;57.29;99953.38;106557;1268;137621;-73
2022/04/19 09:23:02;;;;;;;6.40;4.80;;;;;;;6.51;57.03;99953.58;106772;1268;108999;-74
2022/04/19 09:25:36;;;;;;;5.50;4.70;;;;;;;6.55;56.78;99955.92;106414;1271;137346;-73
2022/04/19 09:28:19;;;;;;;6.80;5.10;;;;;;;6.56;56.48;99954.01;106610;1268;97834;-72
2022/04/19 09:30:52;;;;;;;5.30;4.70;;;;;;;6.56;56.53;99956.06;106524;1268;138226;-73
2022/04/19 09:33:26;;;;;;;5.20;4.60;;;;;;;6.58;56.54;99957.23;106405;1271;112568;-75
2022/04/19 09:35:59;;;;;;;5.10;4.40;;;;;;;6.68;56.54;99955.98;106561;1268;105610;-72
2022/04/19 09:38:38;;;;;;;4.60;4.10;;;;;;;6.75;55.82;99956.55;106416;1268;137242;-75
2022/04/19 09:41:12;;;;;;;4.50;4.10;;;;;;;6.77;55.59;99958.90;106909;1270;97189;-74
2022/04/19 09:44:11;;;;;;;5.50;4.30;;;;;;;6.73;55.21;99961.95;107124;1268;137680;-73
2022/04/19 09:47:04;;;;;;;7.30;4.70;;;;;;;6.74;55.47;99962.09;106855;1268;112493;-73
2022/04/19 09:49:48;;;;;;;7.30;4.90;;;;;;;6.80;55.25;99967.12;107018;1265;137411;-73
2022/04/19 09:52:48;;;;;;;6.00;4.60;;;;;;;6.73;54.46;99974.02;106540;1268;108525;-74
2022/04/19 09:55:23;;;;;;;5.00;4.50;;;;;;;6.58;54.31;99975.70;106483;1268;137509;-73
2022/04/19 09:57:56;;;;;;;6.50;4.80;;;;;;;6.48;54.54;99978.86;106725;1267;97833;-73
2022/04/19 10:00:29;;;;;;;5.00;4.50;;;;;;;6.34;54.53;99983.09;106647;1268;111483;-72
2022/04/19 10:08:44;;;;;;;5.30;4.70;;;;;;;6.26;55.01;99988.59;106641;1268;137730;-73
2022/04/19 10:11:18;;;;;;;6.50;4.80;;;;;;;6.32;55.16;99987.81;106665;1268;97724;-72
2022/04/19 10:13:52;;;;;;;6.70;5.10;;;;;;;6.41;55.29;99991.23;106507;1268;137155;-73
2022/04/19 10:16:25;;;;;;;5.50;5.00;;;;;;;6.43;54.79;99990.69;106670;1268;108880;-73
2022/04/19 10:18:58;;;;;;;8.80;4.90;;;;;;;6.49;55.07;99991.09;106520;1268;137989;-72
2022/04/19 10:21:34;;;;;;;6.70;5.10;;;;;;;6.61;55.21;99989.99;106802;1267;97803;-72
2022/04/19 10:24:15;;;;;;;4.80;4.30;;;;;;;6.73;55.11;99989.42;106671;1268;97833;-73
2022/04/19 10:26:48;;;;;;;5.80;4.70;;;;;;;6.84;54.60;99992.48;106520;1268;137132;-73
2022/04/19 10:29:23;;;;;;;4.40;4.00;;;;;;;6.93;54.22;99995.37;106577;1268;109818;-73
2022/04/19 10:32:01;;;;;;;4.40;3.90;;;;;;;7.03;54.02;99996.05;106398;1270;138515;-74
2022/04/19 10:34:34;;;;;;;4.60;3.70;;;;;;;7.13;53.57;99992.86;106693;1268;97854;-73
2022/04/19 10:37:23;;;;;;;4.70;4.30;;;;;;;7.24;53.29;99991.58;106694;1268;137830;-74
2022/04/19 10:40:07;;;;;;;5.00;3.70;;;;;;;7.38;52.94;99993.00;106601;1268;111477;-74
2022/04/19 10:42:40;;;;;;;4.70;4.10;;;;;;;7.52;52.80;99992.83;106546;1268;107972;-74
2022/04/19 10:45:25;;;;;;;4.00;3.60;;;;;;;7.63;52.49;99993.27;106354;1271;137161;-73
2022/04/19 10:48:08;;;;;;;4.30;3.90;;;;;;;7.82;52.35;99990.38;106670;1268;98030;-74
2022/04/19 10:50:44;;;;;;;6.90;3.70;;;;;;;8.02;51.85;99988.14;106640;1268;138226;-74
2022/04/19 10:53:16;;;;;;;4.20;3.80;;;;;;;8.20;51.38;99986.80;106663;1267;112424;-73
2022/04/19 10:56:05;;;;;;;3.50;3.20;;;;;;;8.34;50.89;99989.37;106491;1271;137438;-73
2022/04/19 10:58:44;;;;;;;4.10;3.40;;;;;;;8.54;50.83;99983.66;106610;1270;107835;-73
2022/04/19 11:01:31;;;;;;;5.60;4.00;;;;;;;8.73;50.53;99983.96;106489;1268;137539;-73
2022/04/19 11:04:03;;;;;;;4.60;3.70;;;;;;;8.88;50.23;99982.48;106548;1268;98144;-73
2022/04/19 11:06:40;;;;;;;4.80;4.00;;;;;;;9.08;50.16;99980.34;106558;1268;112123;-73
2022/04/19 11:09:22;;;;;;;4.80;4.30;;;;;;;9.27;49.99;99985.12;106812;1268;137847;-72
2022/04/19 11:11:56;;;;;;;4.80;3.90;;;;;;;9.46;49.42;99984.88;106787;1268;108842;-74
2022/04/19 11:14:47;;;;;;;5.10;4.60;;;;;;;9.66;49.11;99983.02;106885;1268;138303;-74
2022/04/19 11:17:28;;;;;;;4.90;4.40;;;;;;;9.81;48.56;99984.61;106664;1268;97811;-73
2022/04/19 11:20:16;;;;;;;4.80;4.30;;;;;;;9.90;48.27;99981.89;106509;1268;137811;-73
2022/04/19 11:22:52;;;;;;;6.00;4.40;;;;;;;10.00;47.92;99981.17;106617;1267;108853;-73
2022/04/19 11:25:43;;;;;;;5.10;4.40;;;;;;;10.01;47.65;99982.38;106642;1271;137964;-72
2022/04/19 11:28:26;;;;;;;4.60;4.20;;;;;;;10.00;47.27;99982.91;106556;1268;98658;-72
2022/04/19 11:31:16;;;;;;;6.80;4.00;;;;;;;9.91;47.05;99980.10;106570;1271;137716;-73
2022/04/19 11:33:50;;;;;;;5.30;4.30;;;;;;;9.84;46.93;99981.71;106561;1268;112044;-73
2022/04/19 11:36:23;;;;;;;5.60;4.30;;;;;;;9.83;46.92;99975.49;106598;1268;108856;-73
2022/04/19 11:38:55;;;;;;;4.80;4.30;;;;;;;9.82;46.85;99978.13;106499;1268;137467;-74
2022/04/19 11:47:06;;;;;;;5.20;4.00;;;;;;;9.71;46.07;99976.61;106599;1268;112129;-73
2022/04/19 11:49:38;;;;;;;5.90;4.10;;;;;;;9.61;45.80;99978.65;106712;1268;137655;-72
2022/04/19 11:52:12;;;;;;;5.50;3.70;;;;;;;9.56;45.87;99983.01;106627;1268;108831;-73
2022/04/19 11:54:44;;;;;;;4.30;3.90;;;;;;;9.46;45.68;99981.55;106849;1267;96688;-74
2022/04/19 11:57:17;;;;;;;7.20;4.10;;;;;;;9.36;45.82;99980.17;106490;1268;137188;-72
2022/04/19 11:59:54;;;;;;;6.90;4.90;;;;;;;9.38;46.04;99981.65;106619;1268;112449;-72
2022/04/19 12:02:28;;;;;;;9.50;7.60;;;;;;;9.47;46.25;99979.45;106653;1268;137682;-73
2022/04/19 12:05:03;;;;;;;5.10;4.40;;;;;;;9.58;46.29;99977.39;106678;1268;109019;-73
2022/04/19 12:07:45;;;;;;;6.80;4.30;;;;;;;9.70;46.16;99979.77;106410;1268;138484;-74
2022/04/19 12:10:17;;;;;;;4.70;4.30;;;;;;;9.76;46.22;99976.80;106529;1271;98495;-73
2022/04/19 12:12:50;;;;;;;5.60;4.40;;;;;;;9.85;46.14;99977.33;106638;1268;112381;-73
2022/04/19 12:15:41;;;;;;;6.70;4.70;;;;;;;9.89;45.58;99977.59;107031;1268;137266;-73
2022/04/19 12:18:31;;;;;;;5.80;4.30;;;;;;;9.92;45.59;99978.86;106514;1268;107502;-73
2022/04/19 12:21:04;;;;;;;6.50;4.10;;;;;;;9.97;45.50;99974.17;106623;1270;137920;-73
2022/04/19 12:23:37;;;;;;;4.90;4.40;;;;;;;10.05;45.40;99971.80;106639;1268;97826;-73
2022/04/19 12:26:11;;;;;;;5.50;4.40;;;;;;;10.05;44.91;99973.19;106680;1268;138241;-73
2022/04/19 12:28:48;;;;;;;5.20;4.00;;;;;;;9.99;44.46;99967.85;107025;1267;108050;-73
2022/04/19 12:31:34;;;;;;;5.10;4.40;;;;;;;9.91;44.23;99963.61;107137;1268;137675;-73
2022/04/19 12:34:08;;;;;;;4.90;4.40;;;;;;;9.81;44.62;99964.30;106538;1268;97858;-73
2022/04/19 12:36:48;;;;;;;5.10;4.30;;;;;;;9.79;44.70;99965.91;107222;1269;97716;-74
2022/04/19 12:39:23;;;;;;;6.50;4.50;;;;;;;9.83;44.55;99966.66;106587;1268;137529;-73
2022/04/19 12:42:04;;;;;;;4.90;4.30;;;;;;;9.82;44.10;99967.03;106586;1268;108859;-74
2022/04/19 12:44:37;;;;;;;4.60;4.20;;;;;;;9.80;44.01;99962.40;106462;1268;137709;-73
2022/04/19 12:47:14;;;;;;;5.10;4.60;;;;;;;9.89;44.38;99964.19;106640;1268;97828;-73